XBFGP MMVA-MMTG
Flight info
| Callsign | XBFGP |
|---|---|
| Flight time | 0h 22m |
| Altitude | 14500 |
| Route | MMVA DCT MMTG |
| Aircraft | TBM9/L-V/N |
Departure
| Time | 2026-04-20 18:01 |
|---|---|
| Airport | Carlos Rovirosa Pérez International Airport (MMVA) |
Arrival
| Time | 2026-04-20 18:23 |
|---|---|
| Airport | Angel Albino Corzo International Airport (MMTG) |
| Time | Latitude | Longitude | Altitude | Speed | Heading |
|---|---|---|---|---|---|
| 2026-04-20 17:57 | 17.99342 | -92.81891 | 38 ft | 0 kts | 177° |
| 2026-04-20 17:59 | 17.99373 | -92.81894 | -54 ft | 8 kts | 174° |
| 2026-04-20 17:59 | 17.99395 | -92.81894 | 38 ft | 3 kts | 253° |
| 2026-04-20 17:59 | 17.99492 | -92.82006 | 37 ft | 27 kts | 332° |
| 2026-04-20 17:59 | 17.99571 | -92.82180 | 35 ft | 28 kts | 296° |
| 2026-04-20 18:00 | 17.99659 | -92.82238 | 35 ft | 29 kts | 84° |
| 2026-04-20 18:00 | 17.99685 | -92.81794 | 39 ft | 92 kts | 88° |
| 2026-04-20 18:00 | 17.99715 | -92.80976 | 234 ft | 127 kts | 84° |
| 2026-04-20 18:00 | 17.99758 | -92.79985 | 636 ft | 147 kts | 84° |
| 2026-04-20 18:01 | 17.99861 | -92.78874 | 1072 ft | 156 kts | 84° |
| 2026-04-20 18:01 | 17.99794 | -92.77733 | 1546 ft | 165 kts | 112° |
| 2026-04-20 18:01 | 17.98939 | -92.76883 | 2001 ft | 181 kts | 158° |
| 2026-04-20 18:01 | 17.97655 | -92.76875 | 2484 ft | 193 kts | 193° |
| 2026-04-20 18:02 | 17.96337 | -92.77290 | 2962 ft | 203 kts | 196° |
| 2026-04-20 18:02 | 17.94961 | -92.77740 | 3432 ft | 210 kts | 196° |
| 2026-04-20 18:02 | 17.93542 | -92.78216 | 3907 ft | 216 kts | 196° |
| 2026-04-20 18:02 | 17.92091 | -92.78711 | 4385 ft | 219 kts | 197° |
| 2026-04-20 18:03 | 17.90684 | -92.79192 | 5106 ft | 208 kts | 196° |
| 2026-04-20 18:03 | 17.89329 | -92.79654 | 5819 ft | 201 kts | 196° |
| 2026-04-20 18:03 | 17.88011 | -92.80100 | 6525 ft | 196 kts | 197° |
| 2026-04-20 18:03 | 17.86727 | -92.80524 | 7213 ft | 192 kts | 196° |
| 2026-04-20 18:04 | 17.85456 | -92.80937 | 7919 ft | 190 kts | 196° |
| 2026-04-20 18:04 | 17.84204 | -92.81338 | 8629 ft | 186 kts | 196° |
| 2026-04-20 18:04 | 17.82994 | -92.81721 | 9349 ft | 182 kts | 196° |
| 2026-04-20 18:04 | 17.81723 | -92.82118 | 9768 ft | 199 kts | 196° |
| 2026-04-20 18:05 | 17.78892 | -92.82995 | 10495 ft | 223 kts | 197° |
| 2026-04-20 18:05 | 17.77378 | -92.83467 | 10859 ft | 231 kts | 197° |
| 2026-04-20 18:05 | 17.75811 | -92.83959 | 11223 ft | 238 kts | 197° |
| 2026-04-20 18:06 | 17.74264 | -92.84605 | 11591 ft | 242 kts | 207° |
| 2026-04-20 18:06 | 17.72733 | -92.85377 | 11962 ft | 246 kts | 202° |
| 2026-04-20 18:06 | 17.71073 | -92.85844 | 12324 ft | 249 kts | 188° |
| 2026-04-20 18:06 | 17.69344 | -92.86029 | 12697 ft | 251 kts | 185° |
| 2026-04-20 18:07 | 17.67598 | -92.86227 | 13077 ft | 253 kts | 187° |
| 2026-04-20 18:07 | 17.65854 | -92.86499 | 13467 ft | 254 kts | 188° |
| 2026-04-20 18:07 | 17.64102 | -92.86773 | 13855 ft | 255 kts | 188° |
| 2026-04-20 18:07 | 17.62343 | -92.87030 | 14193 ft | 256 kts | 187° |
| 2026-04-20 18:08 | 17.60574 | -92.87286 | 14492 ft | 259 kts | 187° |
| 2026-04-20 18:08 | 17.58737 | -92.87559 | 14504 ft | 273 kts | 187° |
| 2026-04-20 18:08 | 17.56843 | -92.87844 | 14509 ft | 282 kts | 187° |
| 2026-04-20 18:08 | 17.54876 | -92.88139 | 14519 ft | 289 kts | 188° |
| 2026-04-20 18:09 | 17.52873 | -92.88435 | 14525 ft | 293 kts | 187° |
| 2026-04-20 18:09 | 17.50842 | -92.88734 | 14525 ft | 296 kts | 187° |
| 2026-04-20 18:09 | 17.48793 | -92.89036 | 14526 ft | 298 kts | 187° |
| 2026-04-20 18:09 | 17.46750 | -92.89337 | 14526 ft | 295 kts | 187° |
| 2026-04-20 18:10 | 17.44716 | -92.89633 | 14526 ft | 294 kts | 187° |
| 2026-04-20 18:10 | 17.42697 | -92.89930 | 14527 ft | 292 kts | 188° |
| 2026-04-20 18:10 | 17.40687 | -92.90227 | 14530 ft | 292 kts | 187° |
| 2026-04-20 18:10 | 17.38707 | -92.90521 | 14529 ft | 291 kts | 187° |
| 2026-04-20 18:11 | 17.36699 | -92.90816 | 14523 ft | 291 kts | 187° |
| 2026-04-20 18:11 | 17.34700 | -92.91110 | 14529 ft | 291 kts | 187° |
| 2026-04-20 18:11 | 17.32693 | -92.91406 | 14528 ft | 291 kts | 187° |
| 2026-04-20 18:11 | 17.30691 | -92.91701 | 14528 ft | 290 kts | 187° |
| 2026-04-20 18:12 | 17.28687 | -92.91995 | 14528 ft | 290 kts | 187° |
| 2026-04-20 18:12 | 17.27363 | -92.92189 | 14528 ft | 290 kts | 187° |
| 2026-04-20 18:12 | 17.25362 | -92.92483 | 14527 ft | 290 kts | 187° |
| 2026-04-20 18:12 | 17.23357 | -92.92778 | 14527 ft | 291 kts | 187° |
| 2026-04-20 18:13 | 17.22578 | -92.92893 | 14524 ft | 291 kts | 187° |
| 2026-04-20 18:13 | 17.20575 | -92.93190 | 14530 ft | 290 kts | 187° |
| 2026-04-20 18:13 | 17.18576 | -92.93483 | 14529 ft | 290 kts | 186° |
| 2026-04-20 18:13 | 17.16577 | -92.93775 | 14532 ft | 290 kts | 187° |
| 2026-04-20 18:14 | 17.15254 | -92.93969 | 14534 ft | 290 kts | 187° |
| 2026-04-20 18:14 | 17.13256 | -92.94264 | 14535 ft | 290 kts | 187° |
| 2026-04-20 18:14 | 17.11256 | -92.94561 | 14536 ft | 290 kts | 187° |
| 2026-04-20 18:14 | 17.09256 | -92.94853 | 14531 ft | 290 kts | 186° |
| 2026-04-20 18:15 | 17.07253 | -92.95147 | 14530 ft | 290 kts | 186° |
| 2026-04-20 18:15 | 17.05252 | -92.95442 | 14525 ft | 290 kts | 186° |
| 2026-04-20 18:15 | 17.03257 | -92.95733 | 14526 ft | 289 kts | 187° |
| 2026-04-20 18:15 | 17.01265 | -92.96023 | 14525 ft | 289 kts | 187° |
| 2026-04-20 18:16 | 16.99271 | -92.96319 | 14523 ft | 289 kts | 186° |
| 2026-04-20 18:16 | 16.97257 | -92.96614 | 14218 ft | 298 kts | 187° |
| 2026-04-20 18:16 | 16.95190 | -92.96925 | 13727 ft | 301 kts | 187° |
| 2026-04-20 18:16 | 16.93113 | -92.97236 | 13193 ft | 303 kts | 186° |
| 2026-04-20 18:17 | 16.91026 | -92.97542 | 12662 ft | 302 kts | 187° |
| 2026-04-20 18:17 | 16.88946 | -92.97838 | 12147 ft | 302 kts | 187° |
| 2026-04-20 18:17 | 16.86868 | -92.98142 | 11643 ft | 302 kts | 187° |
| 2026-04-20 18:17 | 16.84813 | -92.98446 | 11158 ft | 303 kts | 187° |
| 2026-04-20 18:18 | 16.82725 | -92.98753 | 10603 ft | 303 kts | 187° |
| 2026-04-20 18:18 | 16.80639 | -92.99059 | 10011 ft | 300 kts | 186° |
| 2026-04-20 18:18 | 16.78611 | -92.99359 | 9409 ft | 290 kts | 187° |
| 2026-04-20 18:18 | 16.76617 | -92.99643 | 8790 ft | 288 kts | 187° |
| 2026-04-20 18:19 | 16.74646 | -92.99931 | 8172 ft | 284 kts | 187° |
| 2026-04-20 18:19 | 16.72702 | -93.00213 | 7554 ft | 280 kts | 187° |
| 2026-04-20 18:19 | 16.70786 | -93.00488 | 6967 ft | 276 kts | 187° |
| 2026-04-20 18:19 | 16.68886 | -93.00769 | 6383 ft | 274 kts | 187° |
| 2026-04-20 18:20 | 16.67005 | -93.01048 | 5774 ft | 272 kts | 188° |
| 2026-04-20 18:20 | 16.65141 | -93.01318 | 5177 ft | 269 kts | 188° |
| 2026-04-20 18:20 | 16.63287 | -93.01267 | 4547 ft | 267 kts | 166° |
| 2026-04-20 18:20 | 16.61581 | -93.00548 | 4006 ft | 261 kts | 154° |
| 2026-04-20 18:21 | 16.60037 | -92.99720 | 3521 ft | 241 kts | 153° |
| 2026-04-20 18:21 | 16.58579 | -92.98915 | 3051 ft | 234 kts | 152° |
| 2026-04-20 18:21 | 16.57171 | -92.98146 | 2590 ft | 230 kts | 151° |
| 2026-04-20 18:21 | 16.55723 | -92.97619 | 2546 ft | 210 kts | 184° |
| 2026-04-20 18:22 | 16.54649 | -92.98369 | 2769 ft | 181 kts | 236° |
| 2026-04-20 18:22 | 16.54095 | -92.99587 | 2334 ft | 191 kts | 251° |
| 2026-04-20 18:22 | 16.53820 | -93.00875 | 2385 ft | 172 kts | 283° |
| 2026-04-20 18:22 | 16.54550 | -93.01649 | 2039 ft | 154 kts | 337° |
| 2026-04-20 18:23 | 16.55514 | -93.02200 | 1515 ft | 150 kts | 331° |
| 2026-04-20 18:23 | 16.56158 | -93.02595 | 1503 ft | 36 kts | 317° |
| 2026-04-20 18:23 | 16.56181 | -93.02579 | 1503 ft | 18 kts | 129° |
| 2026-04-20 18:23 | 16.56035 | -93.02317 | 1503 ft | 44 kts | 112° |
| 2026-04-20 18:24 | 16.56146 | -93.02268 | 1504 ft | 26 kts | 324° |
| 2026-04-20 18:24 | 16.56300 | -93.02370 | 1505 ft | 26 kts | 330° |
| 2026-04-20 18:24 | 16.56436 | -93.02332 | 1505 ft | 24 kts | 50° |
| 2026-04-20 18:24 | 16.56505 | -93.02209 | 1506 ft | 10 kts | 148° |
| 2026-04-20 18:25 | 16.56497 | -93.02205 | 1506 ft | 0 kts | 149° |